Battle Ground, WA (98604)

1:21 PM PDT on July 23, 2016 (GMT -0700)
BATTLE GROUND .5 m North of H.S. | | Change Station

Elev 305 ft 45.79 °N, 122.54 °W | Updated 7 seconds ago

Overcast
Overcast
69.8 °F
Feels Like 69.8 °F
N
0.0
Wind Variable Wind from SE
Gusts 4.0 mph

Today
High -- | Low -- °F
--% Chance of Precip.
Yesterday
High -- | Low -- °F
Precip. -- in
Pressure 30.26 in
Visibility 10.0 miles
Clouds Overcast 3700 ft
Dew Point 56 °F
Humidity 62%
Rainfall 0.00 in
Snow Depth Not available.
5:43 AM 8:48 PM
Waning Gibbous, 83% visible
METAR KVUO 231953Z AUTO VRB05KT 10SM OVC037 19/11 A3025 RMK AO2 SLP245 T01890111
Pressure 30.26 in
Visibility 10.0 miles
Clouds Overcast 3700 ft
Dew Point 56 °F
Humidity 62%
Rainfall 0.00 in
Snow Depth Not available.
5:43 AM 8:48 PM
Waning Gibbous, 83% visible
METAR KVUO 231953Z AUTO VRB05KT 10SM OVC037 19/11 A3025 RMK AO2 SLP245 T01890111

10-Day Weather Forecast

Almanac

Astronomy

Jul. 23, 2016 Rise Set
Actual Time
Civil Twilight
Nautical Twilight
Astronomical Twilight
Moon
Length of Visible Light
Length of Day
Tomorrow will be .
, % of the Moon is Illuminated

Today's Extremes

State Highs State Lows

Community

WunderPhotos

Upload Photos

1,926,916 photos uploaded!

WunderBlog® & News

Nearby

Air Quality

  Air Quality AQ Index Pollutant
Not available.

Snow Depth

Station Depth Elevation

Earthquake Activity

City Distance Mag. Time & Date
Minimum magnitude displayed is 2.5.

Coastal Water Temperatures

Place Temperature

Stations

Nearby Weather Stations

Station Location Temp. Windchill Dew Point Humidity Wind Precip. Elev Updated Type
                   

Watches & Warnings

There are currently no watches in effect.